createdAt,value
2022-09-17T07:59:36.323Z,961.3
2022-09-17T08:00:36.261Z,960.99
2022-09-17T08:01:36.411Z,960.77
2022-09-17T08:02:36.401Z,960.66
2022-09-17T08:03:36.335Z,960.56
2022-09-17T08:04:36.386Z,960.54
2022-09-17T08:05:36.260Z,960.49
2022-09-17T08:06:36.348Z,960.47
2022-09-17T08:07:36.268Z,960.45
2022-09-17T08:08:36.258Z,960.43
2022-09-17T08:09:36.342Z,960.42
2022-09-17T08:10:37.289Z,960.41
2022-09-17T08:11:54.888Z,960.44
2022-09-17T08:12:36.495Z,960.43
2022-09-17T08:13:37.301Z,960.41
2022-09-17T08:14:36.472Z,960.44
2022-09-17T08:15:36.347Z,960.43
2022-09-17T08:16:36.459Z,960.45
2022-09-17T08:18:37.332Z,960.44
2022-09-17T08:19:36.296Z,960.41
2022-09-17T08:20:36.378Z,960.44
2022-09-17T08:22:36.326Z,960.42
2022-09-17T08:23:36.393Z,960.38
2022-09-17T08:25:36.341Z,960.37
2022-09-17T08:27:36.312Z,960.39
2022-09-17T08:28:36.428Z,960.42
2022-09-17T08:29:36.313Z,960.43
2022-09-17T08:31:36.426Z,960.41
2022-09-17T08:32:36.390Z,960.44
2022-09-17T08:33:36.338Z,960.43
2022-09-17T08:35:36.403Z,960.48
2022-09-17T08:36:36.327Z,960.57
2022-09-17T08:37:36.446Z,960.65
2022-09-17T08:39:37.719Z,960.64
2022-09-17T08:40:36.490Z,960.62
2022-09-17T08:41:36.441Z,960.58
2022-09-17T08:42:36.346Z,960.6
2022-09-17T08:43:36.456Z,960.56
2022-09-17T08:45:37.508Z,960.52
2022-09-17T08:46:36.434Z,960.55
2022-09-17T08:47:37.519Z,960.56
2022-09-17T08:49:36.462Z,960.59
2022-09-17T08:50:36.427Z,960.56
2022-09-17T08:51:36.497Z,960.59
2022-09-17T08:52:36.477Z,960.62
2022-09-17T08:53:36.431Z,960.58
2022-09-17T08:54:36.377Z,960.61
2022-09-17T08:56:38.079Z,960.58
2022-09-17T08:57:36.509Z,960.64
2022-09-17T08:58:36.427Z,960.69
2022-09-17T09:00:36.497Z,960.66
2022-09-17T09:01:36.451Z,960.68
2022-09-17T09:02:36.533Z,960.66
2022-09-17T09:03:36.508Z,960.63
2022-09-17T09:05:36.645Z,960.62
2022-09-17T09:06:36.509Z,960.6
2022-09-17T09:07:36.486Z,960.62
2022-09-17T09:08:36.467Z,960.61
2022-09-17T09:09:36.510Z,960.63
2022-09-17T09:10:36.514Z,960.64
2022-09-17T09:11:36.664Z,960.71
2022-09-17T09:12:36.513Z,960.76
2022-09-17T09:13:36.492Z,960.73
2022-09-17T09:14:37.694Z,960.74
2022-09-17T09:15:36.545Z,960.68
2022-09-17T09:16:36.530Z,960.72
2022-09-17T09:17:36.454Z,960.71
2022-09-17T09:18:36.530Z,960.67
2022-09-17T09:19:36.502Z,960.65
2022-09-17T09:20:37.719Z,960.66
2022-09-17T09:21:36.566Z,960.53
2022-09-17T09:22:36.701Z,960.56
2022-09-17T09:23:36.473Z,960.53
2022-09-17T09:24:36.543Z,960.54
2022-09-17T09:25:36.446Z,960.53
2022-09-17T09:26:36.571Z,960.52
2022-09-17T09:28:36.547Z,960.54
2022-09-17T09:29:36.547Z,960.55
2022-09-17T09:30:36.561Z,960.59
2022-09-17T09:31:36.528Z,960.64
2022-09-17T09:32:36.551Z,960.66
2022-09-17T09:33:36.464Z,960.7
2022-09-17T09:34:36.736Z,960.69
2022-09-17T09:35:36.568Z,960.72
2022-09-17T09:36:36.563Z,960.69
2022-09-17T09:37:37.790Z,960.65
2022-09-17T09:38:36.579Z,960.7
2022-09-17T09:39:41.394Z,960.72
2022-09-17T09:40:36.807Z,960.7
2022-09-17T09:41:36.603Z,960.63
2022-09-17T09:42:36.560Z,960.6
2022-09-17T09:43:52.936Z,960.61
2022-09-17T09:44:36.685Z,960.64
2022-09-17T09:45:36.583Z,960.66
2022-09-17T09:47:36.593Z,960.63
2022-09-17T09:48:36.568Z,960.62
2022-09-17T09:49:36.751Z,960.6
2022-09-17T09:50:54.990Z,960.57
2022-09-17T09:51:36.865Z,960.53
2022-09-17T09:52:36.753Z,960.55
2022-09-17T09:53:36.606Z,960.65
2022-09-17T09:54:36.583Z,960.66
2022-09-17T09:55:36.762Z,960.67
2022-09-17T09:57:36.585Z,960.73
2022-09-17T09:58:36.531Z,960.72
2022-09-17T10:00:36.544Z,960.78
2022-09-17T10:02:36.817Z,960.81
2022-09-17T10:03:37.956Z,960.8
2022-09-17T10:04:36.543Z,960.77
2022-09-17T10:05:36.625Z,960.82
2022-09-17T10:06:36.546Z,960.85
2022-09-17T10:07:36.638Z,960.87
2022-09-17T10:09:37.988Z,960.86
2022-09-17T10:10:36.634Z,960.84
2022-09-17T10:11:36.564Z,960.87
2022-09-17T10:12:37.993Z,960.91
2022-09-17T10:13:36.570Z,960.84
2022-09-17T10:14:36.641Z,960.8
2022-09-17T10:15:38.044Z,960.83
2022-09-17T10:16:36.715Z,960.81
2022-09-17T10:17:36.642Z,960.8
2022-09-17T10:18:38.032Z,960.71
2022-09-17T10:19:36.651Z,960.69
2022-09-17T10:20:36.653Z,960.64
2022-09-17T10:21:37.543Z,960.56
2022-09-17T10:22:36.584Z,960.51
2022-09-17T10:24:36.623Z,960.45
2022-09-17T10:25:36.674Z,960.39
2022-09-17T10:27:36.617Z,960.35
2022-09-17T10:28:36.673Z,960.38
2022-09-17T10:29:36.672Z,960.29
2022-09-17T10:30:36.842Z,960.28
2022-09-17T10:31:36.756Z,960.32
2022-09-17T10:32:36.669Z,960.27
2022-09-17T10:33:36.670Z,960.26
2022-09-17T10:34:36.683Z,960.25
2022-09-17T10:35:36.664Z,960.26
2022-09-17T10:36:38.001Z,960.29
2022-09-17T10:37:36.811Z,960.35
2022-09-17T10:38:36.679Z,960.37
2022-09-17T10:39:36.857Z,960.43
2022-09-17T10:40:36.696Z,960.42
2022-09-17T10:41:37.665Z,960.45
2022-09-17T10:42:36.705Z,960.44
2022-09-17T10:43:36.713Z,960.46
2022-09-17T10:44:36.741Z,960.48
2022-09-17T10:45:36.706Z,960.45
2022-09-17T10:46:36.777Z,960.48
2022-09-17T10:47:37.702Z,960.52
2022-09-17T10:48:36.727Z,960.5
2022-09-17T10:49:36.729Z,960.48
2022-09-17T10:50:36.689Z,960.52
2022-09-17T10:51:36.656Z,960.54
2022-09-17T10:52:36.834Z,960.5
2022-09-17T10:53:37.738Z,960.52
2022-09-17T10:54:36.717Z,960.51
2022-09-17T10:55:36.670Z,960.5
2022-09-17T10:56:36.700Z,960.49
2022-09-17T10:57:36.877Z,960.51
2022-09-17T10:58:40.447Z,960.47
2022-09-17T10:59:36.682Z,960.46
2022-09-17T11:00:36.889Z,960.43
2022-09-17T11:01:37.865Z,960.48
2022-09-17T11:02:36.932Z,960.47
2022-09-17T11:03:36.690Z,960.49
2022-09-17T11:04:36.696Z,960.53
2022-09-17T11:05:36.705Z,960.49
2022-09-17T11:06:36.770Z,960.51
2022-09-17T11:07:36.697Z,960.53
2022-09-17T11:08:36.718Z,960.56
2022-09-17T11:09:36.702Z,960.53
2022-09-17T11:12:36.717Z,960.52
2022-09-17T11:13:36.859Z,960.53
2022-09-17T11:14:36.722Z,960.5
2022-09-17T11:16:36.798Z,960.51
2022-09-17T11:17:36.818Z,960.52
2022-09-17T11:18:36.797Z,960.53
2022-09-17T11:19:37.908Z,960.56
2022-09-17T11:20:36.736Z,960.51
2022-09-17T11:21:36.777Z,960.49
2022-09-17T11:22:36.731Z,960.53
2022-09-17T11:23:36.941Z,960.56
2022-09-17T11:25:36.742Z,960.56
2022-09-17T11:26:36.939Z,960.57
2022-09-17T11:27:36.798Z,960.56
2022-09-17T11:28:36.977Z,960.54
2022-09-17T11:29:36.754Z,960.53
2022-09-17T11:30:36.753Z,960.54
2022-09-17T11:31:36.785Z,960.51
2022-09-17T11:32:36.755Z,960.44
2022-09-17T11:33:36.936Z,960.43
2022-09-17T11:34:36.782Z,960.42
2022-09-17T11:35:36.756Z,960.44
2022-09-17T11:36:36.933Z,960.45
2022-09-17T11:37:37.983Z,960.46
2022-09-17T11:39:38.000Z,960.47
2022-09-17T11:40:37.120Z,960.45
2022-09-17T11:41:36.791Z,960.47
2022-09-17T11:42:37.031Z,960.45
2022-09-17T11:43:36.837Z,960.46
2022-09-17T11:44:36.791Z,960.47
2022-09-17T11:46:36.949Z,960.37
2022-09-17T11:47:36.974Z,960.45
2022-09-17T11:48:36.939Z,960.4
2022-09-17T11:49:36.799Z,960.39
2022-09-17T11:50:36.975Z,960.4
2022-09-17T11:51:36.940Z,960.44
2022-09-17T11:52:37.027Z,960.46
2022-09-17T11:55:37.018Z,960.48
2022-09-17T11:56:36.846Z,960.5
2022-09-17T11:57:36.956Z,960.6
2022-09-17T11:58:37.019Z,960.62
2022-09-17T11:59:36.859Z,960.63
2022-09-17T12:00:38.102Z,960.67
2022-09-17T12:01:36.900Z,960.65
2022-09-17T12:02:37.006Z,960.64
2022-09-17T12:03:36.839Z,960.59
2022-09-17T12:04:36.834Z,960.57
2022-09-17T12:05:37.009Z,960.58
2022-09-17T12:06:36.871Z,960.61
2022-09-17T12:07:36.864Z,960.65
2022-09-17T12:08:36.850Z,960.66
2022-09-17T12:09:36.855Z,960.64
2022-09-17T12:10:37.039Z,960.65
2022-09-17T12:11:37.005Z,960.59
2022-09-17T12:12:49.442Z,960.52
2022-09-17T12:13:37.208Z,960.45
2022-09-17T12:15:36.974Z,960.39
2022-09-17T12:16:37.076Z,960.35
2022-09-17T12:17:37.009Z,960.32
2022-09-17T12:19:36.994Z,960.31
2022-09-17T12:20:37.016Z,960.38
2022-09-17T12:21:38.244Z,960.35
2022-09-17T12:22:40.204Z,960.4
2022-09-17T12:23:37.173Z,960.43
2022-09-17T12:24:36.959Z,960.37
2022-09-17T12:25:37.052Z,960.49
2022-09-17T12:27:37.094Z,960.47
2022-09-17T12:28:37.068Z,960.53
2022-09-17T12:29:36.896Z,960.51
2022-09-17T12:31:37.042Z,960.49
2022-09-17T12:32:37.035Z,960.45
2022-09-17T12:33:37.097Z,960.43
2022-09-17T12:34:37.066Z,960.32
2022-09-17T12:35:52.983Z,960.33
2022-09-17T12:36:36.936Z,960.28
2022-09-17T12:37:36.918Z,960.18
2022-09-17T12:38:36.929Z,960.14
2022-09-17T12:39:36.915Z,960.07
2022-09-17T12:40:37.035Z,959.99
2022-09-17T12:41:36.937Z,959.97
2022-09-17T12:42:38.820Z,960.02
2022-09-17T12:43:37.085Z,959.99
2022-09-17T12:44:36.950Z,960.04
2022-09-17T12:45:36.961Z,960.03
2022-09-17T12:46:37.005Z,960.04
2022-09-17T12:47:36.947Z,960.02
2022-09-17T12:48:36.949Z,960.09
2022-09-17T12:49:36.967Z,960.12
2022-09-17T12:50:36.956Z,960.11
2022-09-17T12:51:36.972Z,960.17
2022-09-17T12:52:36.958Z,960.2
2022-09-17T12:53:36.961Z,960.28
2022-09-17T12:55:36.977Z,960.29
2022-09-17T12:56:36.971Z,960.27
2022-09-17T12:57:36.969Z,960.25
2022-09-17T12:58:36.975Z,960.31
2022-09-17T12:59:36.978Z,960.33
2022-09-17T13:00:37.007Z,960.34
2022-09-17T13:01:37.003Z,960.33
2022-09-17T13:02:36.983Z,960.42
2022-09-17T13:04:57.131Z,960.5
2022-09-17T13:05:37.108Z,960.48
2022-09-17T13:06:37.003Z,960.45
2022-09-17T13:07:36.987Z,960.51
2022-09-17T13:08:37.001Z,960.47
2022-09-17T13:09:37.003Z,960.5
2022-09-17T13:10:37.003Z,960.51
2022-09-17T13:11:37.009Z,960.54
2022-09-17T13:12:37.014Z,960.55
2022-09-17T13:14:37.001Z,960.52
2022-09-17T13:15:37.020Z,960.48
2022-09-17T13:16:37.041Z,960.46
2022-09-17T13:17:37.030Z,960.44
2022-09-17T13:18:37.120Z,960.37
2022-09-17T13:19:37.026Z,960.43
2022-09-17T13:21:37.040Z,960.41
2022-09-17T13:22:37.031Z,960.4
2022-09-17T13:23:37.028Z,960.41
2022-09-17T13:24:37.030Z,960.38
2022-09-17T13:27:37.048Z,960.37
2022-09-17T13:28:37.042Z,960.36
2022-09-17T13:30:37.051Z,960.38
2022-09-17T13:31:37.099Z,960.34
2022-09-17T13:32:37.059Z,960.29
2022-09-17T13:33:37.051Z,960.3
2022-09-17T13:34:37.055Z,960.29
2022-09-17T13:35:37.064Z,960.28
2022-09-17T13:36:37.069Z,960.24
2022-09-17T13:37:37.060Z,960.3
2022-09-17T13:38:37.075Z,960.31
2022-09-17T13:39:37.072Z,960.39
2022-09-17T13:40:37.110Z,960.5
2022-09-17T13:41:37.081Z,960.54
2022-09-17T13:42:37.077Z,960.57
2022-09-17T13:43:37.096Z,960.61
2022-09-17T13:44:37.088Z,960.65
2022-09-17T13:45:37.092Z,960.68
2022-09-17T13:46:37.139Z,960.52
2022-09-17T13:47:37.083Z,960.47
2022-09-17T13:48:37.095Z,960.46
2022-09-17T13:49:37.089Z,960.49
2022-09-17T13:50:37.123Z,960.51
2022-09-17T13:51:37.103Z,960.46
2022-09-17T13:52:37.235Z,960.5
2022-09-17T13:53:37.141Z,960.46
2022-09-17T13:54:37.122Z,960.49
2022-09-17T13:55:37.179Z,960.47
2022-09-17T13:56:37.239Z,960.56
2022-09-17T13:57:37.115Z,960.65
2022-09-17T13:59:37.135Z,960.62
2022-09-17T14:00:37.311Z,960.61
2022-09-17T14:01:37.190Z,960.55
2022-09-17T14:02:37.186Z,960.54
2022-09-17T14:03:37.239Z,960.5
2022-09-17T14:04:37.190Z,960.44
2022-09-17T14:05:37.152Z,960.45
2022-09-17T14:06:37.139Z,960.38
2022-09-17T14:07:38.237Z,960.32
2022-09-17T14:08:37.136Z,960.36
2022-09-17T14:09:39.271Z,960.34
2022-09-17T14:10:37.146Z,960.33
2022-09-17T14:12:37.230Z,960.3
2022-09-17T14:13:37.237Z,960.39
2022-09-17T14:14:37.156Z,960.38
2022-09-17T14:15:37.241Z,960.37
2022-09-17T14:16:37.578Z,960.35
2022-09-17T14:17:37.167Z,960.37
2022-09-17T14:18:37.160Z,960.36
2022-09-17T14:19:37.314Z,960.38
2022-09-17T14:20:37.182Z,960.41
2022-09-17T14:21:37.255Z,960.43
2022-09-17T14:22:38.322Z,960.51
2022-09-17T14:23:37.196Z,960.44
2022-09-17T14:24:37.257Z,960.51
2022-09-17T14:25:37.322Z,960.61
2022-09-17T14:26:37.191Z,960.66
2022-09-17T14:27:41.536Z,960.69
2022-09-17T14:28:37.197Z,960.66
2022-09-17T14:29:37.302Z,960.67
2022-09-17T14:30:37.195Z,960.64
2022-09-17T14:33:37.204Z,960.65
2022-09-17T14:34:37.207Z,960.63
2022-09-17T14:35:37.299Z,960.68
2022-09-17T14:36:37.211Z,960.66
2022-09-17T14:37:37.266Z,960.68
2022-09-17T14:38:37.319Z,960.65
2022-09-17T14:39:37.271Z,960.67
2022-09-17T14:40:37.303Z,960.65
2022-09-17T14:41:37.309Z,960.64
2022-09-17T14:42:37.330Z,960.63
2022-09-17T14:43:37.226Z,960.69
2022-09-17T14:44:37.221Z,960.66
2022-09-17T14:45:37.384Z,960.65
2022-09-17T14:46:37.316Z,960.61
2022-09-17T14:47:37.323Z,960.62
2022-09-17T14:48:37.316Z,960.67
2022-09-17T14:50:37.250Z,960.69
2022-09-17T14:51:37.393Z,960.75
2022-09-17T14:53:37.330Z,960.68
2022-09-17T14:54:38.488Z,960.63
2022-09-17T14:55:37.369Z,960.72
2022-09-17T14:56:37.263Z,960.63
2022-09-17T14:57:37.300Z,960.58
2022-09-17T14:58:37.410Z,960.51
2022-09-17T14:59:37.335Z,960.57
2022-09-17T15:00:37.406Z,960.51
2022-09-17T15:01:37.385Z,960.52
2022-09-17T15:03:37.281Z,960.56
2022-09-17T15:04:37.271Z,960.6
2022-09-17T15:05:37.272Z,960.55
2022-09-17T15:06:37.411Z,960.54
2022-09-17T15:07:39.918Z,960.56
2022-09-17T15:08:37.304Z,960.6
2022-09-17T15:09:37.295Z,960.64
2022-09-17T15:10:37.289Z,960.6
2022-09-17T15:11:37.308Z,960.68
2022-09-17T15:12:37.294Z,960.69
2022-09-17T15:13:37.295Z,960.63
2022-09-17T15:14:37.298Z,960.66
2022-09-17T15:15:37.318Z,960.62
2022-09-17T15:16:37.362Z,960.64
2022-09-17T15:17:37.363Z,960.7
2022-09-17T15:18:37.308Z,960.72
2022-09-17T15:19:37.319Z,960.66
2022-09-17T15:20:37.462Z,960.65
2022-09-17T15:21:37.330Z,960.63
2022-09-17T15:22:37.408Z,960.69
2022-09-17T15:23:37.326Z,960.71
2022-09-17T15:24:37.352Z,960.72
2022-09-17T15:25:37.337Z,960.78
2022-09-17T15:26:37.342Z,960.8
2022-09-17T15:27:37.435Z,960.83
2022-09-17T15:29:37.350Z,960.9
2022-09-17T15:30:37.446Z,960.88
2022-09-17T15:31:37.527Z,960.89
2022-09-17T15:32:37.496Z,960.84
2022-09-17T15:33:37.459Z,960.82
2022-09-17T15:34:37.370Z,960.83
2022-09-17T15:35:37.394Z,960.78
2022-09-17T15:37:37.533Z,960.74
2022-09-17T15:38:38.835Z,960.73
2022-09-17T15:39:37.466Z,960.68
2022-09-17T15:40:37.476Z,960.67
2022-09-17T15:41:37.368Z,960.73
2022-09-17T15:42:37.467Z,960.72
2022-09-17T15:43:37.530Z,960.68
2022-09-17T15:44:37.380Z,960.69
2022-09-17T15:45:37.489Z,960.67
2022-09-17T15:46:37.444Z,960.64
2022-09-17T15:47:37.400Z,960.66
2022-09-17T15:48:37.482Z,960.7
2022-09-17T15:49:39.308Z,960.73
2022-09-17T15:50:37.498Z,960.78
2022-09-17T15:52:37.544Z,960.73
2022-09-17T15:53:37.526Z,960.78
2022-09-17T15:54:37.473Z,960.73
2022-09-17T15:55:37.404Z,960.72
2022-09-17T15:56:37.521Z,960.7
2022-09-17T15:58:37.420Z,960.69
2022-09-17T15:59:37.525Z,960.66
2022-09-17T16:00:37.484Z,960.61
2022-09-17T16:01:37.644Z,960.59
2022-09-17T16:02:37.682Z,960.58
2022-09-17T16:03:37.489Z,960.59
2022-09-17T16:04:37.432Z,960.62
2022-09-17T16:05:37.427Z,960.54
2022-09-17T16:08:37.434Z,960.55
2022-09-17T16:09:38.407Z,960.6
2022-09-17T16:10:37.474Z,960.63
2022-09-17T16:11:37.461Z,960.66
2022-09-17T16:12:37.452Z,960.68
2022-09-17T16:13:37.470Z,960.73
2022-09-17T16:14:37.539Z,960.71
2022-09-17T16:15:37.450Z,960.74
2022-09-17T16:16:37.518Z,960.75
2022-09-17T16:17:37.461Z,960.8
2022-09-17T16:19:37.560Z,960.81
2022-09-17T16:20:37.485Z,960.83
2022-09-17T16:21:37.651Z,960.87
2022-09-17T16:22:37.481Z,960.9
2022-09-17T16:25:37.590Z,960.91
2022-09-17T16:26:37.560Z,960.89
2022-09-17T16:27:37.643Z,960.91
2022-09-17T16:28:37.593Z,960.87
2022-09-17T16:29:37.490Z,960.92
2022-09-17T16:30:37.636Z,960.91
2022-09-17T16:32:37.575Z,960.94
2022-09-17T16:33:37.623Z,960.96
2022-09-17T16:34:37.606Z,960.98
2022-09-17T16:35:37.575Z,960.99
2022-09-17T16:36:37.519Z,961.01
2022-09-17T16:37:37.611Z,961
2022-09-17T16:39:37.647Z,961.01
2022-09-17T16:40:37.568Z,960.97
2022-09-17T16:41:37.580Z,960.99
2022-09-17T16:42:37.582Z,961.01
2022-09-17T16:43:37.618Z,961.02
2022-09-17T16:44:37.521Z,961.05
2022-09-17T16:45:37.526Z,961.03
2022-09-17T16:47:37.585Z,961.05
2022-09-17T16:48:37.657Z,961.01
2022-09-17T16:49:37.537Z,960.99
2022-09-17T16:50:37.551Z,961.03
2022-09-17T16:51:37.553Z,961.05
2022-09-17T16:52:37.626Z,961.07
2022-09-17T16:53:37.701Z,961.06
2022-09-17T16:54:37.662Z,961.05
2022-09-17T16:55:37.630Z,961.04
2022-09-17T16:56:37.558Z,961.05
2022-09-17T16:57:37.568Z,961.02
2022-09-17T16:58:37.672Z,961.06
2022-09-17T16:59:37.711Z,961.02
2022-09-17T17:01:37.649Z,961.01
2022-09-17T17:03:37.678Z,961
2022-09-17T17:04:37.649Z,960.96
2022-09-17T17:05:37.606Z,960.95
2022-09-17T17:06:37.687Z,960.97
2022-09-17T17:08:37.726Z,960.98
2022-09-17T17:09:37.687Z,960.95
2022-09-17T17:10:37.657Z,960.91
2022-09-17T17:11:37.727Z,960.9
2022-09-17T17:12:37.687Z,960.88
2022-09-17T17:13:37.594Z,960.86
2022-09-17T17:16:37.703Z,960.88
2022-09-17T17:18:37.613Z,960.9
2022-09-17T17:19:37.667Z,960.89
2022-09-17T17:20:37.620Z,960.92
2022-09-17T17:21:37.708Z,960.91
2022-09-17T17:23:37.635Z,960.9
2022-09-17T17:24:37.712Z,960.94
2022-09-17T17:25:37.670Z,960.97
2022-09-17T17:26:37.653Z,961
2022-09-17T17:27:37.627Z,961.02
2022-09-17T17:28:37.626Z,960.98
2022-09-17T17:29:37.756Z,961
2022-09-17T17:30:37.637Z,960.98
2022-09-17T17:31:37.852Z,961.07
2022-09-17T17:32:37.747Z,961.05
2022-09-17T17:33:37.717Z,961.07
2022-09-17T17:34:37.648Z,961.03
2022-09-17T17:35:37.753Z,961.08
2022-09-17T17:36:37.656Z,961.12
2022-09-17T17:37:37.787Z,961.13
2022-09-17T17:38:37.754Z,961.11
2022-09-17T17:39:37.723Z,961.13
2022-09-17T17:40:37.841Z,961.16
2022-09-17T17:42:37.735Z,961.18
2022-09-17T17:43:37.666Z,961.23
2022-09-17T17:44:37.770Z,961.2
2022-09-17T17:45:37.748Z,961.21
2022-09-17T17:46:37.753Z,961.24
2022-09-17T17:49:37.690Z,961.27
2022-09-17T17:50:37.775Z,961.26
2022-09-17T17:51:37.687Z,961.25
2022-09-17T17:52:37.806Z,961.26
2022-09-17T17:53:37.778Z,961.29
2022-09-17T17:54:37.692Z,961.36
2022-09-17T17:55:37.706Z,961.33
2022-09-17T17:56:37.702Z,961.35
2022-09-17T17:57:37.855Z,961.38
2022-09-17T17:58:37.717Z,961.39
2022-09-17T17:59:37.788Z,961.44
2022-09-17T18:00:37.874Z,961.46
2022-09-17T18:01:37.919Z,961.41
2022-09-17T18:02:37.874Z,961.36
2022-09-17T18:03:37.762Z,961.47
2022-09-17T18:04:37.745Z,961.55
2022-09-17T18:05:37.811Z,961.52
2022-09-17T18:06:37.726Z,961.56
2022-09-17T18:08:37.804Z,961.53
2022-09-17T18:09:37.872Z,961.48
2022-09-17T18:10:37.740Z,961.5
2022-09-17T18:11:37.827Z,961.54
2022-09-17T18:12:37.804Z,961.49
2022-09-17T18:13:37.760Z,961.53
2022-09-17T18:14:37.811Z,961.52
2022-09-17T18:15:37.909Z,961.56
2022-09-17T18:16:37.886Z,961.55
2022-09-17T18:17:37.762Z,961.53
2022-09-17T18:18:43.695Z,961.54
2022-09-17T18:19:37.846Z,961.58
2022-09-17T18:20:37.787Z,961.57
2022-09-17T18:21:37.771Z,961.63
2022-09-17T18:23:37.938Z,961.62
2022-09-17T18:24:37.767Z,961.68
2022-09-17T18:25:37.780Z,961.69
2022-09-17T18:26:37.930Z,961.74
2022-09-17T18:27:37.890Z,961.73
2022-09-17T18:31:38.077Z,961.71
2022-09-17T18:32:37.830Z,961.72
2022-09-17T18:33:37.899Z,961.73
2022-09-17T18:34:37.796Z,961.72
2022-09-17T18:35:37.801Z,961.77
2022-09-17T18:36:37.908Z,961.8
2022-09-17T18:37:37.879Z,961.84
2022-09-17T18:38:37.941Z,961.83
2022-09-17T18:39:57.808Z,961.89
2022-09-17T18:40:37.865Z,961.9
2022-09-17T18:41:37.851Z,961.92
2022-09-17T18:42:37.814Z,961.9
2022-09-17T18:43:37.987Z,961.94
2022-09-17T18:44:37.823Z,961.91
2022-09-17T18:45:37.923Z,961.93
2022-09-17T18:46:37.946Z,961.98
2022-09-17T18:47:37.971Z,962.02
2022-09-17T18:48:37.920Z,962.07
2022-09-17T18:49:37.993Z,962.09
2022-09-17T18:52:37.900Z,962.13
2022-09-17T18:54:37.841Z,962.18
2022-09-17T18:55:39.255Z,962.17
2022-09-17T18:56:37.974Z,962.19
2022-09-17T18:59:37.911Z,962.22
2022-09-17T19:02:37.997Z,962.27
2022-09-17T19:03:37.944Z,962.25
2022-09-17T19:04:37.871Z,962.27
2022-09-17T19:05:37.987Z,962.24
2022-09-17T19:06:37.944Z,962.25
2022-09-17T19:08:37.871Z,962.26
2022-09-17T19:09:37.962Z,962.25
2022-09-17T19:10:37.887Z,962.24
2022-09-17T19:11:37.988Z,962.26
2022-09-17T19:13:38.034Z,962.28
2022-09-17T19:14:38.003Z,962.24
2022-09-17T19:15:37.983Z,962.32
2022-09-17T19:17:38.002Z,962.37
2022-09-17T19:18:37.973Z,962.42
2022-09-17T19:19:37.934Z,962.29
2022-09-17T19:20:38.002Z,962.4
2022-09-17T19:21:38.070Z,962.41
2022-09-17T19:22:37.925Z,962.43
2022-09-17T19:23:37.992Z,962.44
2022-09-17T19:24:37.968Z,962.49
2022-09-17T19:25:37.942Z,962.47
2022-09-17T19:26:38.008Z,962.54
2022-09-17T19:27:38.082Z,962.55
2022-09-17T19:28:37.929Z,962.63
2022-09-17T19:29:38.016Z,962.6
2022-09-17T19:30:38.080Z,962.57
2022-09-17T19:31:37.977Z,962.45
2022-09-17T19:32:41.245Z,962.58
2022-09-17T19:33:38.204Z,962.63
2022-09-17T19:34:38.050Z,962.66
2022-09-17T19:35:38.034Z,962.63
2022-09-17T19:36:38.095Z,962.65
2022-09-17T19:37:38.056Z,962.61
2022-09-17T19:38:38.017Z,962.69
2022-09-17T19:39:37.960Z,962.67
2022-09-17T19:40:38.059Z,962.66
2022-09-17T19:42:39.019Z,962.68
2022-09-17T19:44:38.026Z,962.62
2022-09-17T19:45:37.974Z,962.7
2022-09-17T19:46:38.177Z,962.72
2022-09-17T19:47:38.036Z,962.78
2022-09-17T19:48:38.109Z,962.8
2022-09-17T19:49:38.075Z,962.79
2022-09-17T19:50:38.047Z,962.82
2022-09-17T19:51:37.982Z,962.81
2022-09-17T19:52:38.079Z,962.69
2022-09-17T19:53:38.040Z,962.74
2022-09-17T19:54:37.995Z,962.81
2022-09-17T19:56:38.048Z,962.78
2022-09-17T19:57:38.108Z,962.81
2022-09-17T19:58:38.091Z,962.8
2022-09-17T19:59:38.164Z,962.84
2022-09-17T20:00:38.003Z,962.8
2022-09-17T20:01:38.038Z,962.78
2022-09-17T20:02:38.239Z,962.8
2022-09-17T20:03:38.021Z,962.79
2022-09-17T20:04:38.097Z,962.78
2022-09-17T20:05:38.049Z,962.75
2022-09-17T20:06:38.147Z,962.76
2022-09-17T20:07:38.088Z,962.75
2022-09-17T20:08:42.653Z,962.78
2022-09-17T20:09:38.030Z,962.84
2022-09-17T20:11:38.026Z,962.82
2022-09-17T20:12:38.137Z,962.85
2022-09-17T20:13:38.100Z,962.81
2022-09-17T20:14:38.168Z,962.78
2022-09-17T20:16:38.117Z,962.8
2022-09-17T20:17:38.179Z,962.83
2022-09-17T20:18:38.146Z,962.82
2022-09-17T20:19:38.115Z,962.81
2022-09-17T20:20:38.061Z,962.8
2022-09-17T20:21:38.057Z,962.81
2022-09-17T20:22:38.117Z,962.84
2022-09-17T20:23:38.188Z,962.85
2022-09-17T20:24:38.156Z,962.88
2022-09-17T20:25:38.219Z,962.92
2022-09-17T20:26:38.062Z,962.88
2022-09-17T20:27:38.154Z,962.93
2022-09-17T20:28:38.123Z,962.92
2022-09-17T20:29:38.197Z,962.95
2022-09-17T20:30:38.162Z,962.93
2022-09-17T20:31:38.135Z,962.92
2022-09-17T20:32:38.105Z,962.91
2022-09-17T20:33:38.162Z,962.92
2022-09-17T20:35:38.087Z,962.91
2022-09-17T20:36:38.171Z,962.94
2022-09-17T20:38:18.793Z,962.88
2022-09-17T20:39:10.385Z,962.97
2022-09-17T20:39:38.248Z,962.96
2022-09-17T20:40:38.279Z,962.93
2022-09-17T20:41:38.099Z,962.97
2022-09-17T20:43:38.110Z,962.99
2022-09-17T20:44:38.112Z,963.03
2022-09-17T20:45:38.121Z,963.04
2022-09-17T20:46:38.262Z,963.02
2022-09-17T20:47:38.120Z,963.07
2022-09-17T20:48:38.204Z,962.97
2022-09-17T20:49:38.173Z,963.07
2022-09-17T20:50:38.149Z,963.12
2022-09-17T20:51:38.296Z,963.05
2022-09-17T20:52:38.122Z,963.13
2022-09-17T20:53:38.135Z,963.18
2022-09-17T20:54:38.162Z,963.14
2022-09-17T20:55:38.164Z,963.19
2022-09-17T20:56:38.233Z,963.17
2022-09-17T20:57:38.160Z,963.18
2022-09-17T20:58:38.267Z,963.16
2022-09-17T20:59:38.147Z,963.04
2022-09-17T21:00:38.145Z,963.11
2022-09-17T21:01:38.263Z,963.08
2022-09-17T21:02:38.163Z,963.07
2022-09-17T21:03:38.361Z,963.01
2022-09-17T21:04:38.158Z,962.99
2022-09-17T21:05:38.256Z,962.95
2022-09-17T21:06:39.509Z,962.91
2022-09-17T21:07:38.287Z,962.94
2022-09-17T21:08:38.248Z,962.92
2022-09-17T21:09:38.315Z,962.93
2022-09-17T21:10:38.164Z,962.95
2022-09-17T21:11:38.250Z,962.99
2022-09-17T21:12:38.182Z,962.98
2022-09-17T21:13:38.287Z,963
2022-09-17T21:14:38.248Z,962.94
2022-09-17T21:15:38.280Z,962.99
2022-09-17T21:16:38.301Z,962.98
2022-09-17T21:18:39.703Z,962.97
2022-09-17T21:19:38.296Z,963.04
2022-09-17T21:20:38.195Z,962.99
2022-09-17T21:21:38.213Z,963.07
2022-09-17T21:22:38.301Z,963.06
2022-09-17T21:23:38.278Z,963.02
2022-09-17T21:24:38.240Z,963.1
2022-09-17T21:25:38.302Z,963.05
2022-09-17T21:26:38.211Z,963.04
2022-09-17T21:27:38.229Z,963.07
2022-09-17T21:28:38.306Z,963.01
2022-09-17T21:29:38.275Z,963.11
2022-09-17T21:30:38.227Z,963.13
2022-09-17T21:31:38.353Z,963.07
2022-09-17T21:32:38.236Z,963.13
2022-09-17T21:33:38.253Z,963.06
2022-09-17T21:34:38.320Z,963.14
2022-09-17T21:35:38.236Z,963.12
2022-09-17T21:36:38.358Z,963.15
2022-09-17T21:37:38.239Z,963.08
2022-09-17T21:38:38.275Z,963.15
2022-09-17T21:39:38.248Z,963.22
2022-09-17T21:40:38.419Z,963.16
2022-09-17T21:41:42.251Z,963.2
2022-09-17T21:42:38.256Z,963.21
2022-09-17T21:43:38.331Z,963.17
2022-09-17T21:44:38.260Z,963.2
2022-09-17T21:45:38.259Z,963.16
2022-09-17T21:46:38.447Z,963.23
2022-09-17T21:47:38.411Z,963.25
2022-09-17T21:48:38.369Z,963.24
2022-09-17T21:49:38.262Z,963.21
2022-09-17T21:50:38.267Z,963.23
2022-09-17T21:51:38.386Z,963.24
2022-09-17T21:52:38.347Z,963.17
2022-09-17T21:53:38.282Z,963.2
2022-09-17T21:54:38.388Z,963.23
2022-09-17T21:55:38.281Z,963.27
2022-09-17T21:56:38.422Z,963.21
2022-09-17T21:57:38.384Z,963.25
2022-09-17T21:58:38.351Z,963.26
2022-09-17T21:59:38.301Z,963.28
2022-09-17T22:00:38.395Z,963.25